Terminal Aerodrome Forecast
Issued by NWS

Home | Current Version | Previous Version | Text Only | Print | Product List | Glossary On
Versions: 1 2 3 4 5 6 7 8 9 10 11 12
000
FTUS45 KPIH 251720
TAFSUN
TAF
KSUN 251720Z 2518/2624 13008KT P6SM SKC
     FM260400 31010KT P6SM SKC
     FM261800 14008KT P6SM BKN100
     FM262200 14008KT P6SM VCTS BKN090CB=

USA.gov is the U.S. government's official web portal to all federal, state and local government web resources and services.